메인 페이지
METAR-TAF:

METAR-TAF

공항 :

로스앤젤레스 국제공항

로스앤젤레스, 캘리포니아, 미국

위도: 33-56-17N, 경도: 118-23-20W, 고도: 38m

현재 날씨관측

예보는 44분 전, 17:53시(UTC)에 발표되었습니다.
7kt
온도 17°C
습도 72%
기압 1017 hPa
시정: 16.1km
고도 1200ft 상공 구름 보통
고도 1800ft 상공 구름 많음
고도 2600ft 상공 흐림

METAR: KLAX 181753Z 27007KT 10SM SCT012 BKN018 OVC026 17/12 A3003 RMK AO2 SLP168 T01670122 10167 20139 53007 $

시각: 11:37 (18:37 UTC)

예보

예보는 9분 전, 18:28시(UTC)에 발표되었습니다.
예보 대상 시간: 18일 18시부터 19일 24시까지 (UTC)
7kt
시정: 10km
고도 1200ft 상공 구름 보통
고도 1800ft 상공 구름 많음
고도 2600ft 상공 흐림
18일 2000시부터 (UTC)
서남서10kt
시정: 10km
고도 2500ft 상공 흐림
19일 0300시부터 (UTC)
10kt
시정: 10km
고도 1500ft 상공 흐림
19일 1100시부터 (UTC)
서남서7kt
시정: 10km
고도 2500ft 상공 흐림
19일 2100시부터 (UTC)
11kt
시정: 10km
고도 2500ft 상공 구름 보통
고도 3500ft 상공 구름 많음

TAF: KLAX 181828Z 1818/1924 27007KT P6SM SCT012 BKN018 OVC026 FM182000 25010KT P6SM OVC025 FM190300 26010KT P6SM OVC015 FM191100 25007KT P6SM OVC025 FM192100 26011KT P6SM SCT025 BKN035

4,000개 이상의 공항 관측 자료 및 예보 (METAR 및 TAF 보고).

지도상에서 검색 가능한 기상관측소가 노란 점과 빨간 점으로 표시되어 있습니다.

기상관측소 명을 보려면 표시 위로 마우스를 이동하세요.

날씨 관측과 예보를 보려면 클릭하세요.

지도 변경 : 확대하려면 엑스 표시가 있는 녹색 버튼, 축소하려면 빼기 표시가 있는 녹색 버튼, 다음 페이지의 지도를 보려면 녹색 화살표를 클릭하세요.


METAR-TAF: